M I D A S
Marine Information and Data Acquisition System
Tripno 435 of the Zeeleeuw from 2003-02-24 07:24:40 to 2003-02-24 15:38:59
Back to CruiseResearch ActivitiesStationsMapUnderway DataData graphs

EquipmentUnitsComment
TimeDGPSUTC
LatitudeDGPSDM.mWGS84
LongitudeDGPSDM.mWGS84
TemperatureSBE03/SBE38deg celciusITS90
ConductivitySBE21S/mITS90
SalinitySBE21 Practical Salinity Units
ChlorophylAChelsea fluorimeterg/lCalibrated in Aceton
Missing or incorrect values are displayed as -999
Sea surface data collected by the RV Zeeleeuw from 2003-02-24 07:24:40 to 2003-02-24 15:38:59
Time Latitude Longitude Temperature Conductivity Salinity ChlorophylA
2003-02-24 07:25:43 51°13.593 2°56.105 10.326999 3.692974 23.441798 -0.848668
2003-02-24 07:26:43 51°13.607 2°56.051 10.343657 3.692552 23.441564 -0.882377
2003-02-24 07:27:43 51°13.644 2°55.935 10.328772 3.692236 23.441729 -0.882377
2003-02-24 07:28:43 51°13.677 2°55.822 10.338338 3.691815 23.440131 -0.848668
2003-02-24 07:29:43 51°13.692 2°55.739 10.345337 3.691393 23.439214 -0.848668
2003-02-24 07:30:43 51°13.702 2°55.74 10.348556 3.691077 23.43938 -0.848668
2003-02-24 07:31:43 51°13.74 2°55.737 10.306508 3.690867 23.439263 -0.848668
2003-02-24 07:32:43 51°13.809 2°55.659 10.371319 3.69055 23.438747 -0.848668
2003-02-24 07:33:43 51°13.91 2°55.57 10.36866 3.690234 23.439595 -0.848668
2003-02-24 07:34:43 51°14.03 2°55.488 10.378547 3.689918 23.438396 -0.814958
2003-02-24 07:35:43 51°14.152 2°55.395 10.391276 3.689602 23.437879 -0.848668
2003-02-24 07:36:43 51°14.263 2°55.262 10.4116 3.689391 23.437421 -0.848668
2003-02-24 07:37:43 51°14.355 2°55.09 10.415655 3.689075 23.437246 -0.882377
2003-02-24 07:38:43 51°14.418 2°54.857 10.40871 3.689602 23.430371 -0.848668
2003-02-24 07:39:43 51°14.384 2°54.539 10.409922 3.690234 23.4355 -0.848668
2003-02-24 07:40:43 51°14.307 2°54.231 10.412858 3.69055 23.439429 -0.882377
2003-02-24 07:41:43 51°14.236 2°53.924 10.407405 3.690761 23.443984 -0.848668
2003-02-24 07:42:43 51°14.147 2°53.617 10.406333 3.691077 23.4445 -0.814958
2003-02-24 07:43:43 51°14.037 2°53.308 -999 3.691077 23.437674 -0.882377
2003-02-24 07:44:43 51°13.926 2°52.996 -999 3.24146 31.725984 9.095606
2003-02-24 07:45:43 51°13.812 2°52.687 -999 2.863682 30.191634 8.758512
2003-02-24 07:46:43 51°13.7 2°52.378 -999 2.841903 30.181984 7.544973
2003-02-24 07:47:43 51°13.587 2°52.069 -999 2.850006 30.342331 7.646101
2003-02-24 07:48:42 51°13.474 2°51.766 -999 2.850322 30.386782 7.443845
2003-02-24 07:49:43 51°13.36 2°51.45 -999 2.858004 30.494658 8.118033
2003-02-24 07:50:43 51°13.247 2°51.14 -999 2.864002 30.587061 8.85964
2003-02-24 07:51:43 51°13.133 2°50.83 -999 2.866633 30.626457 8.994477
2003-02-24 07:52:43 51°13.02 2°50.518 -999 2.867685 30.649796 9.533828
2003-02-24 07:53:43 51°12.907 2°50.204 -999 2.882102 30.82067 11.219298
2003-02-24 07:54:43 51°12.796 2°49.892 -999 2.890836 30.923744 10.882204
2003-02-24 07:55:43 51°12.684 2°49.581 -999 2.901149 31.048064 10.983332
2003-02-24 07:56:43 51°12.572 2°49.27 -999 2.910305 31.160502 9.634956
2003-02-24 07:57:43 51°12.459 2°48.958 -999 2.916199 31.224153 10.882204
2003-02-24 07:58:43 51°12.345 2°48.645 -999 2.922303 31.28943 11.050751
2003-02-24 07:59:43 51°12.241 2°48.322 -999 2.92788 31.345899 11.320426
2003-02-24 08:00:43 51°12.139 2°47.996 -999 2.937247 31.43506 12.466546
2003-02-24 08:01:43 51°12.036 2°47.67 -999 2.944509 31.5157 11.893486
2003-02-24 08:02:42 51°11.934 2°47.349 -999 2.95356 31.613162 10.275435
2003-02-24 08:03:41 51°11.834 2°47.028 -999 2.962085 31.692232 11.050751
2003-02-24 08:04:40 51°11.731 2°46.706 -999 2.970399 31.767011 9.870922
2003-02-24 08:05:40 51°11.632 2°46.376 -999 2.978083 31.84559 9.331571
2003-02-24 08:06:40 51°11.55 2°46.035 -999 2.983556 31.899779 10.140597
2003-02-24 08:07:40 51°11.469 2°45.694 -999 2.985661 31.916789 10.713657
2003-02-24 08:08:40 51°11.384 2°45.356 -999 2.993555 31.998667 11.017042
2003-02-24 08:09:39 51°11.299 2°45.022 -999 2.996818 32.029328 11.050751
2003-02-24 08:10:40 51°11.212 2°44.677 -999 2.999133 32.053173 11.253007
2003-02-24 08:11:40 51°11.124 2°44.337 -999 3.003028 32.095665 11.08446
2003-02-24 08:12:40 51°11.038 2°43.996 -999 3.011449 32.176678 11.219298
2003-02-24 08:13:40 51°10.951 2°43.656 -999 3.016185 32.227341 10.814785
2003-02-24 08:14:40 51°10.865 2°43.316 7.564332 3.019027 32.247699 11.286717
2003-02-24 08:15:40 51°10.778 2°42.977 7.009887 3.022711 32.294728 11.017042
2003-02-24 08:16:40 51°10.692 2°42.638 6.729837 3.024606 32.312695 11.522683
2003-02-24 08:17:40 51°10.605 2°42.299 7.321526 3.032501 32.390034 13.444118
2003-02-24 08:18:40 51°10.518 2°41.961 6.790796 3.03808 32.445301 12.938477
2003-02-24 08:19:40 51°10.432 2°41.62 7.274625 3.038185 32.450969 13.039606
2003-02-24 08:20:40 51°10.346 2°41.277 6.758795 3.037027 32.436411 13.275571
2003-02-24 08:21:40 51°10.259 2°40.934 7.223332 3.043764 32.501793 12.736221
2003-02-24 08:22:40 51°10.173 2°40.589 7.036705 3.048817 32.544602 12.264289
2003-02-24 08:23:40 51°10.087 2°40.242 7.411758 3.051975 32.561475 11.017042
2003-02-24 08:24:40 51°10 2°39.895 7.122633 3.06187 32.659574 9.769794
2003-02-24 08:25:40 51°9.914 2°39.546 6.796859 3.073555 32.760019 10.073178
2003-02-24 08:26:40 51°9.834 2°39.194 3.81765 3.082187 32.828802 10.410272
2003-02-24 08:27:40 51°9.753 2°38.843 3.798266 3.091556 32.896354 10.208016
2003-02-24 08:28:40 51°9.672 2°38.493 3.783738 3.089345 32.915852 10.309144
2003-02-24 08:29:40 51°9.593 2°38.143 3.816306 3.090714 32.926621 10.781076
2003-02-24 08:30:40 51°9.521 2°37.788 3.819613 3.097346 32.979738 10.646238
2003-02-24 08:31:40 51°9.447 2°37.432 3.831085 3.097767 32.976647 10.915913
2003-02-24 08:32:40 51°9.374 2°37.076 3.853402 3.10261 33.016683 10.781076
2003-02-24 08:33:40 51°9.301 2°36.719 3.882061 3.106505 33.045537 10.983332
2003-02-24 08:34:40 51°9.23 2°36.379 3.918447 3.114822 33.104897 11.253007
2003-02-24 08:35:40 51°9.163 2°36.044 3.954864 3.123139 33.166851 12.635093
2003-02-24 08:36:40 51°9.1 2°35.721 3.947232 3.125244 33.177254 13.174443
2003-02-24 08:37:40 51°9.049 2°35.491 3.935627 3.127876 33.207289 11.522683
2003-02-24 08:38:40 51°9.037 2°35.31 3.963475 3.127139 33.205805 12.635093
2003-02-24 08:39:40 51°9.025 2°35.178 3.997546 3.132509 33.232107 8.893349
2003-02-24 08:40:40 51°9.026 2°35.065 4.018928 3.138299 33.272281 10.915913
2003-02-24 08:41:40 51°9.033 2°35.019 4.030002 3.142721 33.303533 11.185589
2003-02-24 08:42:40 51°9.041 2°35.002 4.040972 3.143458 33.299615 13.039606
2003-02-24 08:43:40 51°9.051 2°34.982 4.043855 3.147669 33.337339 12.972187
2003-02-24 08:44:40 51°9.063 2°34.959 4.036646 3.144826 33.314771 12.264289
2003-02-24 08:45:40 51°9.073 2°34.934 4.037418 3.14251 33.289398 11.017042
2003-02-24 08:46:40 51°9.081 2°34.909 4.042465 3.143984 33.302201 11.421554
2003-02-24 08:47:40 51°9.088 2°34.884 4.045503 3.145248 33.313429 11.556392
2003-02-24 08:48:40 51°9.094 2°34.859 4.049468 3.144616 33.300639 11.320426
2003-02-24 08:49:40 51°9.097 2°34.816 4.061258 3.145353 33.304796 11.151879
2003-02-24 08:50:40 51°9.113 2°34.721 4.097128 3.150512 33.352714 9.769794
2003-02-24 08:51:40 51°9.165 2°34.649 4.148555 3.158092 33.389469 7.612392
2003-02-24 08:52:40 51°9.227 2°34.642 4.170142 3.16662 33.447996 7.949486
2003-02-24 08:53:40 51°9.279 2°34.691 4.172866 3.167041 33.440359 7.646101
2003-02-24 08:54:40 51°9.311 2°34.774 4.168601 3.166831 33.436103 7.511264
2003-02-24 08:55:40 51°9.33 2°34.858 4.16968 3.166725 33.436665 7.106751
2003-02-24 08:56:40 51°9.349 2°34.943 4.162639 3.166409 33.433868 8.016905
2003-02-24 08:57:40 51°9.369 2°35.025 4.149326 3.165146 33.427165 8.151742
2003-02-24 08:58:40 51°9.388 2°35.108 4.131229 3.162409 33.408595 7.646101
2003-02-24 08:59:40 51°9.41 2°35.192 4.116727 3.159882 33.396068 7.949486
2003-02-24 09:00:40 51°9.434 2°35.274 4.10968 3.156723 33.373444 8.016905
2003-02-24 09:01:40 51°9.456 2°35.358 4.116212 3.156302 33.367617 7.882067
2003-02-24 09:02:40 51°9.472 2°35.442 4.109371 3.156092 33.364255 7.309007
2003-02-24 09:03:40 51°9.491 2°35.526 4.10078 3.153249 33.338145 8.084324
2003-02-24 09:04:40 51°9.518 2°35.604 4.080353 3.151038 33.321217 8.151742
2003-02-24 09:05:40 51°9.546 2°35.681 4.007182 3.143142 33.2735 8.724802
2003-02-24 09:06:40 51°9.574 2°35.758 3.984868 3.134088 33.219271 8.657383
2003-02-24 09:07:40 51°9.598 2°35.837 3.978941 3.13135 33.203269 8.28658
2003-02-24 09:08:40 51°9.62 2°35.916 3.969249 3.130298 33.197181 8.28658
2003-02-24 09:09:40 51°9.645 2°35.993 3.969662 3.128929 33.190966 8.691093
2003-02-24 09:10:40 51°9.67 2°36.071 3.969249 3.129034 33.189514 8.421418
2003-02-24 09:11:40 51°9.69 2°36.15 3.963939 3.128087 33.18018 7.848358
2003-02-24 09:12:40 51°9.71 2°36.228 3.953214 3.126718 33.170377 8.050614
2003-02-24 09:13:40 51°9.735 2°36.305 3.940475 3.124402 33.15392 7.915777
2003-02-24 09:14:40 51°9.757 2°36.383 3.936142 3.122507 33.141508 7.780939
2003-02-24 09:15:40 51°9.775 2°36.461 3.934182 3.121244 33.132932 7.443845
2003-02-24 09:16:40 51°9.794 2°36.538 3.925619 3.11977 33.119194 7.679811
2003-02-24 09:17:40 51°9.816 2°36.615 3.920511 3.117875 33.104084 7.983195
2003-02-24 09:18:40 51°9.836 2°36.691 3.912926 3.116717 33.098527 8.084324
2003-02-24 09:19:40 51°9.854 2°36.768 3.90694 3.11598 33.093444 7.848358
2003-02-24 09:20:40 51°9.871 2°36.846 3.914732 3.114716 33.082172 7.612392
2003-02-24 09:21:40 51°9.877 2°36.925 3.942951 3.114927 33.078386 7.073042
2003-02-24 09:22:40 51°9.871 2°36.982 3.961361 3.11998 33.079653 6.297725
2003-02-24 09:23:40 51°9.865 2°37.019 3.926496 3.118717 33.078218 6.499982
2003-02-24 09:24:40 51°9.86 2°37.047 3.894863 3.113874 33.068694 7.544973
2003-02-24 09:25:40 51°9.857 2°37.07 3.886707 3.111032 33.055845 7.848358
2003-02-24 09:26:40 51°9.84 2°37.114 3.890631 3.110821 33.056947 8.151742
2003-02-24 09:27:40 51°9.794 2°37.139 3.909933 3.11219 33.067674 7.578683
2003-02-24 09:28:40 51°9.738 2°37.112 3.960691 3.117348 33.091637 8.758512
2003-02-24 09:29:40 51°9.701 2°37.035 3.942951 3.121138 33.111117 8.084324
2003-02-24 09:30:40 51°9.69 2°36.94 3.957339 3.120296 33.116429 8.185452
2003-02-24 09:31:40 51°9.695 2°36.844 3.991311 3.122086 33.121349 7.309007
2003-02-24 09:32:40 51°9.709 2°36.752 3.959608 3.127349 33.150051 7.949486
2003-02-24 09:33:40 51°9.729 2°36.66 3.929488 3.121875 33.134982 6.803366
2003-02-24 09:34:40 51°9.748 2°36.567 3.917364 3.118401 33.106691 5.926922
2003-02-24 09:35:40 51°9.766 2°36.473 3.91788 3.11619 33.09234 5.556118
2003-02-24 09:36:40 51°9.784 2°36.378 3.916022 3.115559 33.083126 5.353862
2003-02-24 09:37:40 51°9.808 2°36.285 3.928869 3.11598 33.086287 5.421281
2003-02-24 09:38:40 51°9.836 2°36.195 3.945169 3.117664 33.09177 5.623537
2003-02-24 09:39:40 51°9.861 2°36.104 3.964764 3.120822 33.110984 5.016768
2003-02-24 09:40:40 51°9.882 2°36.011 3.979817 3.123244 33.125109 4.679674
2003-02-24 09:41:40 51°9.899 2°35.916 4.001823 3.126718 33.146215 4.409999
2003-02-24 09:42:40 51°9.919 2°35.821 4.008212 3.129666 33.1656 4.443708
2003-02-24 09:43:40 51°9.946 2°35.732 4.053844 3.131455 33.172286 4.477418
2003-02-24 09:44:40 51°9.98 2°35.651 4.153028 3.141352 33.228369 4.91564
2003-02-24 09:45:40 51°10.017 2°35.577 4.318941 3.158723 33.338636 4.511127
2003-02-24 09:46:40 51°10.058 2°35.506 4.386422 3.178095 33.393227 3.331298
2003-02-24 09:47:40 51°10.105 2°35.44 4.400452 3.183254 33.411391 3.331298
2003-02-24 09:48:40 51°10.159 2°35.395 4.408951 3.184412 33.408836 3.634683
2003-02-24 09:49:40 51°10.217 2°35.381 4.428299 3.185254 33.406173 3.095332
2003-02-24 09:50:40 51°10.272 2°35.394 4.436896 3.189782 33.438308 2.589691
2003-02-24 09:51:40 51°10.325 2°35.418 4.42446 3.192099 33.468772 3.432426
2003-02-24 09:52:40 51°10.374 2°35.449 4.426405 3.191993 33.472892 3.432426
2003-02-24 09:53:40 51°10.422 2°35.485 4.424716 3.191888 33.468997 3.600973
2003-02-24 09:54:40 51°10.467 2°35.526 4.435821 3.19273 33.478783 3.634683
2003-02-24 09:55:40 51°10.498 2°35.572 4.441757 3.193678 33.474651 2.555982
2003-02-24 09:56:40 51°10.514 2°35.604 4.4349 3.190624 33.440085 2.859366
2003-02-24 09:57:40 51°10.526 2°35.627 4.425791 3.190203 33.44231 3.365007
2003-02-24 09:58:40 51°10.536 2°35.644 4.421185 3.190203 33.448538 3.836939
2003-02-24 09:59:40 51°10.591 2°35.774 4.419393 3.190098 33.446425 4.34258
2003-02-24 10:00:40 51°10.709 2°36.033 4.191259 3.189466 33.447096 3.668392
2003-02-24 10:01:40 51°10.846 2°36.309 4.109166 3.153985 33.256506 4.983059
2003-02-24 10:02:40 51°10.984 2°36.587 4.078449 3.134613 33.117399 5.084187
2003-02-24 10:03:40 51°11.123 2°36.866 4.067846 3.127664 33.064575 4.88193
2003-02-24 10:04:40 51°11.264 2°37.14 4.079118 3.126296 33.049448 4.645965
2003-02-24 10:05:40 51°11.407 2°37.412 4.091056 3.127033 33.048294 4.34258
2003-02-24 10:06:40 51°11.549 2°37.686 4.078552 3.127559 33.054453 4.106614
2003-02-24 10:07:40 51°11.689 2°37.961 4.120121 3.128717 33.052004 4.174033
2003-02-24 10:08:40 51°11.832 2°38.233 4.101604 3.137771 33.110746 3.938067
2003-02-24 10:09:40 51°11.971 2°38.503 4.110966 3.129664 33.054202 5.421281
2003-02-24 10:10:40 51°12.111 2°38.771 4.107314 3.126295 33.01393 5.016768
2003-02-24 10:11:40 51°12.249 2°39.037 3.997701 3.121979 32.989182 4.612255
2003-02-24 10:12:40 51°12.389 2°39.3 3.958525 3.101029 32.844958 6.196597
2003-02-24 10:13:40 51°12.53 2°39.561 3.882991 3.086396 32.718528 6.095469
2003-02-24 10:14:40 51°12.67 2°39.82 3.806175 3.065342 32.542054 6.870785
2003-02-24 10:15:40 51°12.808 2°40.08 3.791235 3.044183 32.339272 5.45499
2003-02-24 10:16:40 51°12.947 2°40.34 3.777843 3.035868 32.266107 4.409999
2003-02-24 10:17:40 51°13.091 2°40.592 3.817701 3.035236 32.261312 4.039195
2003-02-24 10:18:40 51°13.242 2°40.835 3.823902 3.033025 32.225718 4.140324
2003-02-24 10:19:40 51°13.395 2°41.078 3.765586 3.03671 32.256746 3.567264
2003-02-24 10:20:40 51°13.548 2°41.322 3.749757 3.029763 32.2425 4.443708
2003-02-24 10:21:40 51°13.702 2°41.562 3.717879 3.009447 31.985362 3.499845
2003-02-24 10:22:40 51°13.821 2°41.749 3.692199 2.991554 31.826272 4.645965
2003-02-24 10:23:40 51°13.884 2°41.845 3.703125 2.982502 31.734569 4.578546
2003-02-24 10:24:40 51°13.929 2°41.902 3.725384 2.97366 31.610875 3.971777
2003-02-24 10:25:40 51°13.97 2°41.941 3.737442 2.96966 31.534753 2.960494
2003-02-24 10:26:40 51°13.993 2°41.945 3.772982 2.969766 31.535988 3.095332
2003-02-24 10:27:40 51°14.004 2°41.933 3.763517 2.974712 31.559717 3.567264
2003-02-24 10:28:40 51°14.014 2°41.922 3.759586 2.971765 31.539734 3.398717
2003-02-24 10:29:40 51°14.022 2°41.909 3.789891 2.973344 31.565958 3.23017
2003-02-24 10:30:40 51°14.028 2°41.895 3.789788 2.971344 31.511696 2.690819
2003-02-24 10:31:40 51°14.034 2°41.881 3.791959 2.972502 31.521838 2.758238
2003-02-24 10:32:40 51°14.051 2°41.899 3.763414 2.973554 31.535023 3.027913
2003-02-24 10:33:40 51°14.063 2°41.963 3.771534 2.974712 31.583719 4.174033
2003-02-24 10:34:40 51°14.052 2°42.043 3.770086 2.974186 31.567258 3.836939
2003-02-24 10:35:40 51°14.009 2°42.099 3.797801 2.969344 31.501092 3.600973
2003-02-24 10:36:40 51°13.949 2°42.106 3.810724 2.967765 31.462951 2.859366
2003-02-24 10:37:40 51°13.887 2°42.065 3.790925 2.96566 31.436598 3.061623
2003-02-24 10:38:40 51°13.834 2°41.992 3.712495 2.963345 31.43507 3.938067
2003-02-24 10:39:40 51°13.785 2°41.912 3.742151 2.959872 31.444749 4.376289
2003-02-24 10:40:40 51°13.739 2°41.831 7.131999 2.961345 31.418466 2.825657
2003-02-24 10:41:40 51°13.691 2°41.754 6.971409 2.966502 31.435371 2.050341
2003-02-24 10:42:40 51°13.643 2°41.674 7.619878 2.971343 31.456223 1.780665
2003-02-24 10:43:40 51°13.595 2°41.583 6.563083 2.972291 31.492033 2.421144
2003-02-24 10:44:40 51°13.555 2°41.479 7.005564 2.971134 31.516071 3.365007
2003-02-24 10:45:40 51°13.527 2°41.366 6.408242 2.971765 31.54316 3.836939
2003-02-24 10:46:40 51°13.514 2°41.251 6.786359 2.972608 31.595938 4.780802
2003-02-24 10:47:40 51°13.508 2°41.136 6.951005 2.975555 31.672752 4.814512
2003-02-24 10:48:40 51°13.503 2°41.021 7.366634 2.971555 31.603349 3.129042
2003-02-24 10:49:40 51°13.497 2°40.906 7.113118 2.974607 31.573051 2.286306
2003-02-24 10:50:40 51°13.5 2°40.792 6.716266 2.980923 31.703068 4.612255
2003-02-24 10:51:40 51°13.516 2°40.686 7.064788 2.988501 31.80597 5.690956
2003-02-24 10:52:40 51°13.543 2°40.589 6.952923 2.995764 31.860166 5.556118
2003-02-24 10:53:40 51°13.573 2°40.496 6.706295 3.00029 31.899481 4.308871
2003-02-24 10:54:40 51°13.599 2°40.397 6.60176 2.993974 31.789008 2.252597
2003-02-24 10:55:40 51°13.629 2°40.301 6.805633 2.994605 31.764515 3.23017
2003-02-24 10:56:40 51°13.668 2°40.221 6.582474 3.000079 31.848536 3.76952
2003-02-24 10:57:40 51°13.72 2°40.16 6.797845 3.003026 31.850271 3.129042
2003-02-24 10:58:40 51°13.781 2°40.129 6.819234 3.009868 31.968602 3.971777
2003-02-24 10:59:40 51°13.839 2°40.13 7.498646 3.009447 32.014057 5.050477
2003-02-24 11:00:40 51°13.886 2°40.157 6.604825 3.012394 32.000863 4.072905
2003-02-24 11:01:40 51°13.922 2°40.209 6.9394 3.009131 31.970365 4.376289
2003-02-24 11:02:40 51°13.942 2°40.29 6.901076 3.002606 31.965787 4.747093
2003-02-24 11:03:40 51°13.947 2°40.367 5.960368 3.005026 31.921302 4.308871
2003-02-24 11:04:40 51°13.947 2°40.442 6.502994 2.997131 31.768281 3.027913
2003-02-24 11:05:40 51°13.938 2°40.517 6.951202 2.993342 31.736803 3.297589
2003-02-24 11:06:40 51°13.908 2°40.561 6.434719 2.989342 31.705421 2.488563
2003-02-24 11:07:40 51°13.869 2°40.565 7.155825 2.985868 31.626986 2.286306
2003-02-24 11:08:40 51°13.834 2°40.555 6.756871 2.989448 31.767824 5.185315
2003-02-24 11:09:40 51°13.802 2°40.542 6.517552 2.985659 31.715583 3.80323
2003-02-24 11:10:40 51°13.771 2°40.53 6.472136 2.980922 31.636798 3.297589
2003-02-24 11:11:40 51°13.714 2°40.521 6.731712 2.98187 31.678002 4.34258
2003-02-24 11:12:40 51°13.653 2°40.455 6.812532 2.976923 31.592481 2.690819
2003-02-24 11:13:40 51°13.633 2°40.351 6.752333 2.975764 31.53525 2.758238
2003-02-24 11:14:40 51°13.643 2°40.256 6.231143 2.977765 31.638428 4.949349
2003-02-24 11:15:40 51°13.671 2°40.19 6.398322 2.982081 31.728757 6.432563
2003-02-24 11:16:40 51°13.714 2°40.169 6.71212 2.982817 31.727918 5.825794
2003-02-24 11:17:40 51°13.753 2°40.194 6.356345 2.982607 31.695262 4.645965
2003-02-24 11:18:40 51°13.77 2°40.245 6.329785 2.982501 31.692304 4.511127
2003-02-24 11:19:40 51°13.779 2°40.302 6.174074 2.988712 31.778172 5.859503
2003-02-24 11:20:40 51°13.785 2°40.357 6.133492 2.984606 31.72219 5.4887
2003-02-24 11:21:40 51°13.796 2°40.41 6.747351 2.981449 31.649841 4.174033
2003-02-24 11:22:40 51°13.813 2°40.459 7.215497 2.97366 31.539678 2.690819
2003-02-24 11:23:40 51°13.833 2°40.507 6.940727 2.971659 31.488056 2.893076
2003-02-24 11:24:40 51°13.847 2°40.559 7.681356 2.974291 31.586504 4.544836
2003-02-24 11:25:40 51°13.851 2°40.615 7.43426 2.969661 31.544182 4.34258
2003-02-24 11:26:40 51°13.846 2°40.672 7.520094 2.967029 31.517595 4.039195
2003-02-24 11:27:40 51°13.836 2°40.729 7.665846 2.966187 31.494873 3.80323
2003-02-24 11:28:40 51°13.831 2°40.787 7.265916 2.965555 31.454989 2.724529
2003-02-24 11:29:40 51°13.833 2°40.845 6.601908 2.968186 31.409096 1.612118
2003-02-24 11:30:40 51°13.839 2°40.898 6.803464 2.970817 31.390565 1.275024
2003-02-24 11:31:40 51°13.844 2°40.948 7.320743 2.967028 31.411722 2.454853
2003-02-24 11:32:40 51°13.846 2°41.001 7.777394 2.964187 31.403163 2.6234
2003-02-24 11:33:40 51°13.847 2°41.052 7.164696 2.962082 31.399815 2.859366
2003-02-24 11:34:40 51°13.853 2°41.101 7.605813 2.969132 31.353964 1.342443
2003-02-24 11:35:40 51°13.867 2°41.148 7.266992 2.976709 31.313821 0.634546
2003-02-24 11:36:40 51°13.878 2°41.195 7.095409 2.967449 31.374155 2.218888
2003-02-24 11:37:40 51°13.885 2°41.246 7.188166 2.961976 31.370499 2.6234
2003-02-24 11:38:40 51°13.886 2°41.298 7.235033 2.960292 31.361853 2.724529
2003-02-24 11:39:40 51°13.882 2°41.352 6.854357 2.960082 31.32966 2.286306
2003-02-24 11:40:40 51°13.876 2°41.405 7.066113 2.958608 31.323467 2.320016
2003-02-24 11:41:40 51°13.871 2°41.459 6.704321 2.957766 31.295815 1.679537
2003-02-24 11:42:40 51°13.851 2°41.51 6.488483 2.954293 31.306101 2.387435
2003-02-24 11:43:40 51°13.815 2°41.536 7.140334 2.954293 31.25862 1.5447
2003-02-24 11:44:40 51°13.78 2°41.537 6.619606 2.956187 31.269748 2.286306
2003-02-24 11:45:40 51°13.747 2°41.522 6.418308 2.954399 31.292902 2.454853
2003-02-24 11:46:40 51°13.71 2°41.499 7.360673 2.955977 31.280838 2.117759
2003-02-24 11:47:40 51°13.657 2°41.419 6.661903 2.959555 31.236374 1.173896
2003-02-24 11:48:40 51°13.669 2°41.282 6.941711 2.953872 31.257934 1.848084
2003-02-24 11:49:40 51°13.743 2°41.276 6.874644 2.953136 31.306991 2.589691
2003-02-24 11:50:40 51°13.904 2°41.421 6.910425 2.952504 31.312345 3.162751
2003-02-24 11:51:40 51°14.078 2°41.608 6.91446 2.9504 31.328525 4.477418
2003-02-24 11:52:40 51°14.254 2°41.795 7.430453 2.950505 31.344247 4.275161
2003-02-24 11:53:40 51°14.436 2°41.967 7.038669 2.943454 31.292184 4.34258
2003-02-24 11:54:40 51°14.619 2°42.139 7.16004 2.939876 31.233174 3.297589
2003-02-24 11:55:40 51°14.802 2°42.311 6.604083 2.936613 31.165223 2.690819
2003-02-24 11:56:40 51°14.983 2°42.487 6.689461 2.948189 31.189839 2.353725
2003-02-24 11:57:40 51°15.165 2°42.662 6.578072 2.957872 31.315701 2.353725
2003-02-24 11:58:40 51°15.346 2°42.838 7.25838 2.969239 31.452904 2.454853
2003-02-24 11:59:40 51°15.523 2°43.016 6.790353 2.975764 31.500242 2.117759
2003-02-24 12:00:40 51°15.706 2°43.185 6.476149 2.97829 31.497377 1.578409
2003-02-24 12:01:40 51°15.891 2°43.353 6.73033 2.973975 31.471652 1.949212
2003-02-24 12:02:40 51°16.077 2°43.525 6.832684 2.974291 31.49751 2.320016
2003-02-24 12:03:40 51°16.263 2°43.698 7.400334 2.979132 31.520001 1.848084
2003-02-24 12:04:40 51°16.448 2°43.871 7.042254 2.984605 31.554951 1.713247
2003-02-24 12:05:40 51°16.633 2°44.04 7.063217 2.994183 31.643756 2.050341
2003-02-24 12:06:40 51°16.817 2°44.204 7.004483 2.987868 31.5777 2.488563
2003-02-24 12:07:40 51°17 2°44.365 6.970671 2.974184 31.409503 2.522272
2003-02-24 12:08:40 51°17.182 2°44.525 7.544945 2.953239 31.136715 2.758238
2003-02-24 12:09:40 51°17.364 2°44.685 7.283479 2.938821 31.028344 3.331298
2003-02-24 12:10:40 51°17.55 2°44.844 6.795824 2.938926 31.028732 4.106614
2003-02-24 12:11:40 51°17.72 2°44.926 6.711133 2.933875 30.976554 2.488563
2003-02-24 12:12:40 51°17.824 2°44.976 6.863615 2.930612 30.936855 2.859366
2003-02-24 12:13:40 51°17.893 2°45 7.470802 2.931243 30.889096 1.679537
2003-02-24 12:14:40 51°17.934 2°45.062 6.984729 2.924508 30.888282 2.353725
2003-02-24 12:15:40 51°17.968 2°45.071 7.606981 2.925349 30.821377 0.600836
2003-02-24 12:16:40 51°17.978 2°45.035 7.05119 2.933768 30.833615 0.769383
2003-02-24 12:17:40 51°17.985 2°44.992 7.248347 2.927244 30.824277 1.106477
2003-02-24 12:18:40 51°17.988 2°44.949 6.758795 2.934294 30.851342 2.6234
2003-02-24 12:19:40 51°17.992 2°44.912 6.923807 2.920194 30.857186 3.19646
2003-02-24 12:20:40 51°17.993 2°44.878 6.637349 2.917142 30.844977 3.297589
2003-02-24 12:21:40 51°17.992 2°44.844 7.108066 2.915669 30.829454 3.23017
2003-02-24 12:22:40 51°17.992 2°44.816 6.129258 2.918194 30.816343 2.859366
2003-02-24 12:23:40 51°17.998 2°44.82 6.084262 2.919352 30.838181 3.499845
2003-02-24 12:24:40 51°17.995 2°44.881 6.271364 2.916194 30.796371 2.050341
2003-02-24 12:25:40 51°17.958 2°44.962 6.774724 2.915774 30.81565 2.151469
2003-02-24 12:26:40 51°17.897 2°45.008 7.580061 2.915563 30.81403 2.117759
2003-02-24 12:27:40 51°17.823 2°45.012 7.488115 2.915247 30.805341 2.252597
2003-02-24 12:28:40 51°17.756 2°44.984 6.260528 2.914195 30.814765 2.65711
2003-02-24 12:29:40 51°17.692 2°44.935 6.906046 2.915774 30.845729 3.263879
2003-02-24 12:30:40 51°17.636 2°44.873 6.68477 2.916932 30.855063 3.027913
2003-02-24 12:31:40 51°17.579 2°44.801 7.278539 2.918615 30.846291 2.151469
2003-02-24 12:32:40 51°17.527 2°44.727 7.054086 2.92072 30.849123 1.881794
2003-02-24 12:33:40 51°17.477 2°44.651 7.190959 2.92314 30.852296 1.5447
2003-02-24 12:34:40 51°17.426 2°44.577 6.784042 2.928612 30.860156 1.308734
2003-02-24 12:35:40 51°17.374 2°44.505 7.764286 2.931874 30.887273 1.275024
2003-02-24 12:36:40 51°17.319 2°44.434 7.859473 2.932611 30.904178 1.241315
2003-02-24 12:37:40 51°17.265 2°44.369 6.97657 2.935663 30.929671 1.477281
2003-02-24 12:38:40 51°17.211 2°44.3 7.571442 2.936716 30.938574 1.578409
2003-02-24 12:39:40 51°17.158 2°44.228 6.662397 2.936716 30.95611 1.881794
2003-02-24 12:40:40 51°17.108 2°44.149 6.788036 2.935664 30.966429 2.117759
2003-02-24 12:41:40 51°17.058 2°44.067 6.839532 2.935348 30.948541 1.780665
2003-02-24 12:42:40 51°17.01 2°43.985 6.716364 2.938505 30.966902 1.477281
2003-02-24 12:43:40 51°16.959 2°43.909 7.317223 2.941136 30.954924 1.173896
2003-02-24 12:44:40 51°16.907 2°43.841 7.047753 2.943661 30.967591 1.072768
2003-02-24 12:45:40 51°16.854 2°43.773 7.269243 2.943135 30.958978 1.207606
2003-02-24 12:46:40 51°16.8 2°43.696 7.003009 2.942398 30.966262 1.5447
2003-02-24 12:47:40 51°16.746 2°43.619 7.315952 2.941346 30.966547 1.5447
2003-02-24 12:48:40 51°16.688 2°43.552 7.323774 2.942083 30.984296 1.645828
2003-02-24 12:49:40 51°16.628 2°43.49 7.10007 2.943241 30.991073 1.645828
2003-02-24 12:50:40 51°16.572 2°43.436 7.023592 2.944293 31.001638 1.578409
2003-02-24 12:51:40 51°16.515 2°43.392 7.01254 2.945135 31.028989 1.949212
2003-02-24 12:52:40 51°16.456 2°43.354 7.24262 2.946398 31.041169 2.08405
2003-02-24 12:53:40 51°16.395 2°43.321 6.78493 2.946083 31.072689 2.488563
2003-02-24 12:54:40 51°16.333 2°43.295 6.588062 2.948398 31.091261 2.454853
2003-02-24 12:55:40 51°16.272 2°43.275 6.358777 2.947556 31.092367 2.522272
2003-02-24 12:56:40 51°16.209 2°43.256 6.877154 2.950082 31.110869 2.387435
2003-02-24 12:57:40 51°16.151 2°43.221 6.9602 2.954397 31.188061 3.162751
2003-02-24 12:58:40 51°16.098 2°43.169 7.341469 2.957871 31.235304 3.19646
2003-02-24 12:59:40 51°16.051 2°43.106 6.81268 2.960397 31.247032 3.432426
2003-02-24 13:00:40 51°16.021 2°43.016 7.00237 2.965554 31.318151 3.634683
2003-02-24 13:01:40 51°16.037 2°42.92 7.114246 2.968606 31.357991 3.80323
2003-02-24 13:02:40 51°16.081 2°42.915 6.663682 2.966606 31.303366 3.19646
2003-02-24 13:03:40 51°16.129 2°42.949 6.605814 2.962291 31.275029 3.735811
2003-02-24 13:04:40 51°16.173 2°42.99 7.11405 2.959555 31.265927 4.241452
2003-02-24 13:05:40 51°16.222 2°43.02 7.02757 2.955976 31.218273 3.23017
2003-02-24 13:06:40 51°16.267 2°43.057 7.513368 2.954713 31.205231 3.836939
2003-02-24 13:07:40 51°16.312 2°43.097 5.138432 2.954082 31.204613 3.735811
2003-02-24 13:08:40 51°16.359 2°43.133 3.927528 2.952293 31.172788 3.870648
2003-02-24 13:09:40 51°16.404 2°43.169 3.932119 2.947977 31.113232 3.365007
2003-02-24 13:10:40 51°16.448 2°43.205 3.947335 2.946399 31.090635 3.027913
2003-02-24 13:11:40 51°16.494 2°43.242 3.927167 2.944715 31.069338 3.668392
2003-02-24 13:12:40 51°16.538 2°43.28 3.907405 2.941557 31.028368 3.567264
2003-02-24 13:13:40 51°16.585 2°43.313 3.946716 2.939137 31.004365 2.960494
2003-02-24 13:14:40 51°16.627 2°43.355 3.922214 2.939031 31.007327 3.836939
2003-02-24 13:15:40 51°16.67 2°43.394 3.981673 2.939452 30.99967 3.19646
2003-02-24 13:16:40 51°16.711 2°43.433 3.910811 2.941241 31.002924 3.365007
2003-02-24 13:17:40 51°16.748 2°43.48 3.912926 2.941242 31.045652 4.544836
2003-02-24 13:18:40 51°16.788 2°43.519 3.944447 2.939979 31.006634 2.926785
2003-02-24 13:19:40 51°16.836 2°43.54 3.927476 2.941452 31.013742 2.65711
2003-02-24 13:20:40 51°16.879 2°43.574 3.91917 2.944504 31.068564 4.477418
2003-02-24 13:21:40 51°16.921 2°43.611 3.931242 2.943978 31.060755 3.870648
2003-02-24 13:22:40 51°16.964 2°43.646 3.916848 2.942399 31.038174 3.600973
2003-02-24 13:23:40 51°17.003 2°43.691 3.918138 2.943031 31.058949 4.409999
2003-02-24 13:24:40 51°17.047 2°43.722 3.942177 2.939978 31.005797 2.454853
2003-02-24 13:25:40 51°17.092 2°43.751 3.908127 2.938295 30.982844 2.893076
2003-02-24 13:26:40 51°17.134 2°43.79 3.914784 2.940715 31.041197 3.836939
2003-02-24 13:27:40 51°17.177 2°43.825 3.916022 2.939137 31.00939 3.027913
2003-02-24 13:28:40 51°17.217 2°43.867 3.906166 2.939242 31.022349 3.499845
2003-02-24 13:29:40 51°17.259 2°43.903 3.919789 2.936716 30.986218 2.555982
2003-02-24 13:30:40 51°17.301 2°43.939 3.903379 2.935664 30.967265 2.65711
2003-02-24 13:31:40 51°17.343 2°43.976 3.927734 2.935032 30.974135 2.859366
2003-02-24 13:32:40 51°17.389 2°44.004 3.948263 2.93219 30.90929 2.08405
2003-02-24 13:33:40 51°17.433 2°44.038 3.947489 2.932927 30.908685 2.65711
2003-02-24 13:34:40 51°17.46 2°44.089 3.925722 2.933769 30.937684 2.859366
2003-02-24 13:35:40 51°17.461 2°44.123 3.940527 2.932822 30.927492 2.65711
2003-02-24 13:36:40 51°17.452 2°44.145 3.94816 2.930612 30.888419 2.387435
2003-02-24 13:37:40 51°17.447 2°44.214 3.995794 2.932717 30.913745 2.522272
2003-02-24 13:38:40 51°17.488 2°44.497 3.914474 2.929454 30.854961 2.320016
2003-02-24 13:39:40 51°17.534 2°44.81 3.888463 2.928823 30.900133 3.499845
2003-02-24 13:40:40 51°17.581 2°45.128 3.878809 2.927139 30.898892 3.938067
2003-02-24 13:41:40 51°17.628 2°45.447 3.858773 2.924298 30.875802 4.376289
2003-02-24 13:42:40 51°17.675 2°45.766 3.827985 2.91651 30.810057 4.814512
2003-02-24 13:43:40 51°17.721 2°46.086 3.802816 2.910301 30.760156 5.117896
2003-02-24 13:44:40 51°17.769 2°46.406 3.762172 2.900304 30.673483 4.544836
2003-02-24 13:45:40 51°17.819 2°46.727 3.739978 2.891885 30.604303 4.88193
2003-02-24 13:46:40 51°17.869 2°47.049 3.728386 2.888202 30.582055 5.623537
2003-02-24 13:47:40 51°17.919 2°47.372 3.712495 2.879889 30.494066 5.421281
2003-02-24 13:48:40 51°17.969 2°47.7 3.761913 2.871155 30.407761 4.91564
2003-02-24 13:49:40 51°18.019 2°48.024 3.782032 2.86242 30.221942 4.275161
2003-02-24 13:50:40 51°18.069 2°48.346 3.709027 2.852424 30.141517 4.308871
2003-02-24 13:51:40 51°18.119 2°48.668 3.676921 2.837167 30.01838 4.308871
2003-02-24 13:52:40 51°18.169 2°48.987 3.631323 2.825593 29.931425 4.207742
2003-02-24 13:53:40 51°18.217 2°49.306 3.585224 2.820016 29.889926 4.072905
2003-02-24 13:54:40 51°18.265 2°49.624 3.526268 2.813388 29.862156 3.904358
2003-02-24 13:55:40 51°18.313 2°49.94 3.507988 2.795607 29.680157 3.702101
2003-02-24 13:56:40 51°18.36 2°50.255 3.546255 2.792451 29.670811 3.735811
2003-02-24 13:57:40 51°18.451 2°50.534 3.614992 2.793187 29.634026 3.263879
2003-02-24 13:58:40 51°18.499 2°50.769 3.461642 2.793923 29.655599 3.735811
2003-02-24 13:59:40 51°18.532 2°50.896 3.590826 2.778668 29.472399 2.353725
2003-02-24 14:00:40 51°18.54 2°50.968 3.478688 2.782876 29.555504 3.567264
2003-02-24 14:01:40 51°18.522 2°50.991 3.550926 2.782245 29.576441 3.499845
2003-02-24 14:02:40 51°18.495 2°50.989 3.536029 2.78235 29.519466 2.859366
2003-02-24 14:03:41 51°18.465 2°50.978 3.549369 2.7894 29.637522 3.80323
2003-02-24 14:04:40 51°18.438 2°50.965 3.592953 2.78761 29.55754 2.960494
2003-02-24 14:05:39 51°18.409 2°50.957 3.637646 2.791187 29.560591 3.263879
2003-02-24 14:06:40 51°18.378 2°50.955 3.644798 2.79245 29.542297 2.859366
2003-02-24 14:07:40 51°18.346 2°50.959 3.632463 2.792134 29.537813 2.6234
2003-02-24 14:08:40 51°18.316 2°50.967 3.626191 2.79266 29.565688 2.724529
2003-02-24 14:09:40 51°18.262 2°50.979 3.588544 2.794975 29.607219 3.331298
2003-02-24 14:10:40 51°18.187 2°50.914 3.56774 2.795501 29.635182 3.836939
2003-02-24 14:11:40 51°18.15 2°50.797 3.527462 2.795817 29.668832 4.409999
2003-02-24 14:12:40 51°18.152 2°50.689 3.520296 2.798869 29.732136 4.983059
2003-02-24 14:13:41 51°18.187 2°50.613 3.506846 2.7995 29.745222 4.91564
2003-02-24 14:14:40 51°18.235 2°50.604 3.516661 2.80192 29.780891 5.084187
2003-02-24 14:15:40 51°18.284 2°50.64 3.539974 2.803498 29.787153 4.747093
2003-02-24 14:16:40 51°18.329 2°50.669 3.544334 2.79992 29.707892 3.870648
2003-02-24 14:17:40 51°18.371 2°50.702 3.580815 2.7995 29.721643 4.34258
2003-02-24 14:18:40 51°18.416 2°50.729 3.597102 2.791924 29.589359 3.365007
2003-02-24 14:19:40 51°18.459 2°50.761 3.546566 2.79224 29.60678 3.80323
2003-02-24 14:20:41 51°18.5 2°50.798 3.611363 2.789505 29.606347 3.702101
2003-02-24 14:21:40 51°18.546 2°50.816 3.763 2.782139 29.412518 2.320016
2003-02-24 14:22:40 51°18.596 2°50.827 3.584446 2.782138 29.365349 2.454853
2003-02-24 14:23:40 51°18.642 2°50.852 3.58206 2.785611 29.534187 3.533554
2003-02-24 14:24:40 51°18.682 2°50.889 3.667027 2.788242 29.556037 3.466136
2003-02-24 14:25:41 51°18.725 2°50.925 3.756223 2.783401 29.400808 2.454853
2003-02-24 14:26:40 51°18.768 2°50.955 3.741633 2.784663 29.347653 2.454853
2003-02-24 14:27:40 51°18.813 2°50.986 3.592227 2.785084 29.390022 2.724529
2003-02-24 14:28:40 51°18.854 2°51.026 3.6054 2.782244 29.465894 3.027913
2003-02-24 14:29:41 51°18.892 2°51.072 3.716171 2.778141 29.418824 3.027913
2003-02-24 14:30:41 51°18.932 2°51.118 3.750067 2.776772 29.282267 2.286306
2003-02-24 14:31:40 51°18.973 2°51.161 3.709959 2.775194 29.260756 2.353725
2003-02-24 14:32:41 51°19.016 2°51.204 3.732112 2.772038 29.244747 2.387435
2003-02-24 14:33:40 51°19.058 2°51.245 3.736666 2.77025 29.241445 2.454853
2003-02-24 14:34:40 51°19.101 2°51.285 3.747998 2.770039 29.20485 2.286306
2003-02-24 14:35:41 51°19.144 2°51.327 3.772982 2.770459 29.174874 2.387435
2003-02-24 14:36:40 51°19.186 2°51.368 3.935575 2.77109 29.159259 2.286306
2003-02-24 14:37:40 51°19.228 2°51.411 4.06517 2.778875 29.131893 2.185178
2003-02-24 14:38:41 51°19.27 2°51.457 4.080353 2.787396 29.108594 1.679537
2003-02-24 14:39:40 51°19.31 2°51.503 4.228595 2.793076 29.112968 1.780665
2003-02-24 14:40:41 51°19.346 2°51.559 3.965589 2.7976 29.125117 1.949212
2003-02-24 14:41:40 51°19.356 2°51.606 4.0523 2.784345 29.144752 1.982922
2003-02-24 14:42:41 51°19.349 2°51.629 4.057911 2.789605 29.122281 1.881794
2003-02-24 14:43:40 51°19.339 2°51.639 4.182577 2.787817 29.143974 1.982922
2003-02-24 14:44:41 51°19.338 2°51.656 4.203793 2.796337 29.098951 1.409862
2003-02-24 14:45:41 51°19.351 2°51.709 3.982343 2.795286 29.138345 1.645828
2003-02-24 14:46:40 51°19.371 2°51.768 4.149789 2.783398 29.152679 1.949212
2003-02-24 14:47:40 51°19.411 2°51.791 4.241634 2.794339 29.104844 1.376153
2003-02-24 14:48:40 51°19.463 2°51.786 3.720105 2.801493 29.121453 1.477281
2003-02-24 14:49:40 51°19.513 2°51.796 3.480923 2.764464 29.225836 2.758238
2003-02-24 14:50:40 51°19.563 2°51.812 3.432476 2.753419 29.247065 3.432426
2003-02-24 14:51:41 51°19.615 2°51.822 3.390185 2.751946 29.251472 3.80323
2003-02-24 14:52:39 51°19.665 2°51.833 3.371709 2.753735 29.322254 3.735811
2003-02-24 14:53:41 51°19.716 2°51.851 3.32698 2.751736 29.324588 3.76952
2003-02-24 14:54:41 51°19.763 2°51.875 3.336564 2.750685 29.335629 3.836939
2003-02-24 14:55:40 51°19.813 2°51.889 3.501704 2.751525 29.273834 3.432426
2003-02-24 14:56:41 51°19.866 2°51.895 3.384305 2.756996 29.284903 3.499845
2003-02-24 14:57:40 51°19.904 2°51.934 3.471725 2.755944 29.316763 3.432426
2003-02-24 14:58:40 51°19.897 2°52.011 3.476974 2.760152 29.323437 3.297589
2003-02-24 14:59:41 51°19.835 2°52.054 3.614267 2.760783 29.303532 3.095332
2003-02-24 15:00:40 51°19.758 2°52.021 3.585847 2.765306 29.27552 2.859366
2003-02-24 15:01:41 51°19.691 2°51.951 3.759637 2.761413 29.257273 3.23017
2003-02-24 15:02:41 51°19.63 2°51.877 3.946097 2.771511 29.173625 2.185178
2003-02-24 15:03:40 51°19.575 2°51.799 3.966001 2.785608 29.167955 2.151469
2003-02-24 15:04:41 51°19.517 2°51.719 4.273092 2.793708 29.12256 1.612118
2003-02-24 15:05:41 51°19.459 2°51.642 4.360145 2.808541 29.125179 1.207606
2003-02-24 15:06:41 51°19.401 2°51.565 4.192184 2.812118 29.149755 1.612118
2003-02-24 15:07:41 51°19.342 2°51.497 4.233883 2.7976 29.136816 1.645828
2003-02-24 15:08:41 51°19.282 2°51.44 4.314634 2.802439 29.11674 1.51099
2003-02-24 15:09:40 51°19.224 2°51.39 4.329039 2.806542 29.11397 1.5447
2003-02-24 15:10:41 51°19.162 2°51.332 4.27304 2.806858 29.121459 1.477281
2003-02-24 15:11:41 51°19.101 2°51.268 4.125161 2.800967 29.138785 1.746956
2003-02-24 15:12:41 51°19.04 2°51.202 4.019546 2.791604 29.127285 1.881794
2003-02-24 15:13:41 51°18.978 2°51.137 3.926599 2.783609 29.12606 2.117759
2003-02-24 15:14:40 51°18.918 2°51.072 3.972188 2.782241 29.13854 2.08405
2003-02-24 15:15:41 51°18.857 2°51 3.87757 2.786345 29.208721 2.286306
2003-02-24 15:16:40 51°18.805 2°50.919 3.794544 2.789923 29.336313 2.488563
2003-02-24 15:17:41 51°18.766 2°50.83 3.813102 2.79066 29.398154 2.488563
2003-02-24 15:18:41 51°18.737 2°50.741 3.667804 2.794027 29.452412 2.589691
2003-02-24 15:19:40 51°18.71 2°50.658 3.706231 2.79529 29.541622 2.893076
2003-02-24 15:20:41 51°18.636 2°50.579 3.795888 2.789503 29.420621 2.522272
2003-02-24 15:21:41 51°18.511 2°50.667 3.707888 2.790976 29.430548 2.488563
2003-02-24 15:22:41 51°18.37 2°50.86 3.588855 2.793396 29.541266 3.027913
2003-02-24 15:23:40 51°18.221 2°51.07 3.542673 2.7975 29.661774 3.499845
2003-02-24 15:24:41 51°18.059 2°51.3 3.522425 2.798448 29.70771 4.005486
2003-02-24 15:25:41 51°17.9 2°51.529 3.487158 2.795818 29.702919 4.848221
2003-02-24 15:26:40 51°17.743 2°51.757 3.460031 2.788768 29.63662 5.286443
2003-02-24 15:27:41 51°17.55 2°51.949 3.456288 2.77446 29.507092 6.971913
2003-02-24 15:28:41 51°17.332 2°52.101 3.457952 2.765097 29.390161 6.870785
2003-02-24 15:29:40 51°17.121 2°52.265 3.417498 2.75668 29.306899 7.882067
2003-02-24 15:30:40 51°16.906 2°52.432 3.419683 2.754576 29.29431 8.252871
2003-02-24 15:31:40 51°16.689 2°52.595 7.306271 2.753419 29.298435 7.039332
2003-02-24 15:32:41 51°16.469 2°52.763 7.083388 2.767516 29.368602 6.769657
2003-02-24 15:33:41 51°16.255 2°52.929 6.745674 2.776143 29.427616 5.825794
2003-02-24 15:34:41 51°16.044 2°53.095 7.193163 2.773618 29.427869 5.4887
2003-02-24 15:35:40 51°15.841 2°53.256 7.108557 2.757626 29.239433 4.679674
2003-02-24 15:36:41 51°15.63 2°53.419 7.090994 2.755417 29.165796 5.084187
2003-02-24 15:37:41 51°15.422 2°53.58 6.766932 2.746054 29.144164 6.668529
2003-02-24 15:38:41 51°15.217 2°53.751 6.928284 2.744266 29.157589 4.544836